Time;durP1;ratioP1;P1;durP2;ratioP2;P2;SDS_P1;SDS_P2;PMS_P1;PMS_P2;Temp;Humidity;BMP_temperature;BMP_pressure;BME280_temperature;BME280_humidity;BME280_pressure;Samples;Min_cycle;Max_cycle;Signal;HPM_P1;HPM_P2
2022/05/15 00:01:21;;;;;;;6.25;2.10;;;21.50;58.40;;;;;;5052127;28;20041;-57
2022/05/15 00:03:47;;;;;;;6.28;2.10;;;21.50;58.40;;;;;;5051720;28;20120;-57
2022/05/15 00:06:12;;;;;;;7.18;2.35;;;21.50;58.40;;;;;;5051527;28;20045;-57
2022/05/15 00:08:38;;;;;;;5.57;2.00;;;21.50;58.40;;;;;;5052092;28;20067;-57
2022/05/15 00:11:05;;;;;;;7.68;2.70;;;21.50;58.40;;;;;;5052189;28;20056;-57
2022/05/15 00:13:30;;;;;;;7.57;2.30;;;21.50;58.30;;;;;;5051254;28;20045;-57
2022/05/15 00:15:56;;;;;;;9.23;1.95;;;21.50;58.30;;;;;;5051525;28;20060;-57
2022/05/15 00:18:22;;;;;;;7.38;2.40;;;21.40;58.20;;;;;;5052310;28;20045;-57
2022/05/15 00:20:49;;;;;;;7.40;2.28;;;21.50;58.30;;;;;;5051257;28;20045;-57
2022/05/15 00:23:15;;;;;;;5.90;2.45;;;21.50;58.30;;;;;;5052214;28;20132;-57
2022/05/15 00:25:40;;;;;;;5.93;1.95;;;21.50;58.30;;;;;;5051085;28;20124;-57
2022/05/15 00:28:06;;;;;;;7.72;2.53;;;21.40;58.30;;;;;;5052069;28;20036;-58
2022/05/15 00:30:32;;;;;;;6.38;2.13;;;21.40;58.30;;;;;;5052186;28;20197;-57
2022/05/15 00:32:59;;;;;;;9.57;2.30;;;21.40;58.20;;;;;;5050780;28;20045;-57
2022/05/15 00:35:24;;;;;;;7.32;2.22;;;21.40;58.20;;;;;;5052177;28;20136;-57
2022/05/15 00:37:50;;;;;;;8.75;2.35;;;21.40;58.20;;;;;;5051825;28;20128;-57
2022/05/15 00:40:16;;;;;;;6.50;2.40;;;21.40;58.20;;;;;;5051070;28;20068;-57
2022/05/15 00:42:42;;;;;;;6.72;2.25;;;21.40;58.20;;;;;;5051635;28;20095;-57
2022/05/15 00:45:08;;;;;;;7.53;2.45;;;21.40;58.20;;;;;;5052551;28;20040;-57
2022/05/15 00:47:33;;;;;;;5.78;2.20;;;21.40;58.20;;;;;;5054620;28;20045;-57
2022/05/15 00:49:59;;;;;;;6.80;1.80;;;21.40;58.20;;;;;;5054985;28;20041;-57
2022/05/15 00:52:26;;;;;;;6.00;2.10;;;21.30;58.10;;;;;;5054404;28;20037;-58
2022/05/15 00:55:10;;;;;;;8.32;3.38;;;21.30;58.10;;;;;;5054241;28;20095;-57
2022/05/15 00:57:43;;;;;;;6.72;2.35;;;21.30;58.20;;;;;;5039820;28;20040;-57
2022/05/15 01:00:11;;;;;;;6.05;2.20;;;21.30;58.10;;;;;;5055401;28;20049;-57
2022/05/15 01:02:46;;;;;;;5.88;1.85;;;21.30;58.10;;;;;;5054519;28;20073;-57
2022/05/15 01:05:12;;;;;;;8.30;2.15;;;21.30;58.10;;;;;;5054262;28;20094;-57
2022/05/15 01:07:38;;;;;;;6.93;2.20;;;21.30;58.10;;;;;;5055340;28;20041;-57
2022/05/15 01:10:05;;;;;;;7.35;2.20;;;21.30;58.10;;;;;;5053263;28;20106;-57
2022/05/15 01:12:31;;;;;;;7.45;2.20;;;21.30;58.10;;;;;;5055286;28;20037;-57
2022/05/15 01:14:56;;;;;;;7.43;2.20;;;21.30;58.10;;;;;;5052429;28;20075;-57
2022/05/15 01:17:22;;;;;;;6.95;2.20;;;21.30;58.10;;;;;;5055189;28;20548;-58
2022/05/15 01:19:47;;;;;;;5.45;1.98;;;21.30;58.10;;;;;;5054730;28;20082;-57
2022/05/15 01:22:15;;;;;;;6.88;2.40;;;21.30;58.10;;;;;;5054216;28;20098;-57
2022/05/15 01:24:41;;;;;;;5.33;1.93;;;21.20;58.00;;;;;;5054397;28;20045;-57
2022/05/15 01:27:08;;;;;;;7.90;2.40;;;21.30;58.00;;;;;;5054581;28;20056;-57
2022/05/15 01:29:40;;;;;;;8.63;2.15;;;21.20;58.00;;;;;;5053786;28;20508;-57
2022/05/15 01:32:06;;;;;;;8.18;2.25;;;21.30;58.10;;;;;;5054840;28;20119;-57
2022/05/15 01:34:31;;;;;;;8.20;2.00;;;21.30;58.10;;;;;;5054653;28;20136;-57
2022/05/15 01:36:59;;;;;;;6.85;2.00;;;21.20;58.00;;;;;;5053145;28;20060;-57
2022/05/15 01:39:25;;;;;;;7.87;2.23;;;21.20;58.00;;;;;;5054399;28;20491;-57
2022/05/15 01:41:51;;;;;;;6.30;2.28;;;21.20;58.00;;;;;;5054084;28;20310;-57
2022/05/15 01:44:16;;;;;;;6.90;2.10;;;21.20;58.00;;;;;;5053709;28;20041;-57
2022/05/15 01:46:42;;;;;;;6.07;2.20;;;21.20;58.00;;;;;;5054264;28;20730;-57
2022/05/15 01:49:07;;;;;;;6.47;2.10;;;21.20;58.00;;;;;;5054253;28;20037;-57
2022/05/15 01:51:34;;;;;;;6.93;2.33;;;21.20;58.00;;;;;;5053603;28;20079;-57
2022/05/15 01:54:00;;;;;;;5.75;1.80;;;21.20;58.00;;;;;;5036245;28;20370;-57
2022/05/15 01:56:26;;;;;;;6.35;2.00;;;21.20;58.00;;;;;;5053637;28;20400;-57
2022/05/15 01:58:51;;;;;;;6.65;1.98;;;21.20;57.90;;;;;;5053010;28;20041;-57
2022/05/15 02:01:17;;;;;;;5.40;1.80;;;21.20;58.00;;;;;;5054051;28;20055;-57
2022/05/15 02:03:42;;;;;;;7.53;2.20;;;21.20;57.90;;;;;;5052567;28;20045;-57
2022/05/15 02:06:08;;;;;;;8.98;2.45;;;21.20;57.90;;;;;;5053033;28;20060;-57
2022/05/15 02:08:34;;;;;;;7.63;2.55;;;21.10;57.90;;;;;;5054158;28;20037;-57
2022/05/15 02:11:00;;;;;;;8.85;1.88;;;21.20;57.90;;;;;;5053573;28;20049;-57
2022/05/15 02:13:25;;;;;;;7.20;2.25;;;21.10;57.90;;;;;;5053289;28;20048;-58
2022/05/15 02:15:51;;;;;;;5.80;1.73;;;21.10;57.80;;;;;;5053602;28;20091;-57
2022/05/15 02:18:16;;;;;;;4.82;1.67;;;21.10;57.80;;;;;;5053032;28;20041;-57
2022/05/15 02:20:42;;;;;;;6.53;2.05;;;21.10;57.90;;;;;;5053417;28;20090;-58
2022/05/15 02:23:08;;;;;;;7.00;2.33;;;21.10;57.80;;;;;;5053681;28;20048;-57
2022/05/15 02:25:33;;;;;;;5.35;2.10;;;21.10;57.80;;;;;;5052987;28;20136;-57
2022/05/15 02:27:59;;;;;;;5.65;2.50;;;21.10;57.80;;;;;;5053377;28;20052;-57
2022/05/15 02:30:25;;;;;;;5.50;2.15;;;21.10;57.80;;;;;;5053849;28;20102;-58
2022/05/15 02:32:50;;;;;;;7.18;1.90;;;21.10;57.80;;;;;;5052581;28;20099;-57
2022/05/15 02:35:16;;;;;;;6.90;2.38;;;21.10;57.80;;;;;;5053637;28;20045;-57
2022/05/15 02:37:41;;;;;;;5.30;1.60;;;21.10;57.80;;;;;;5053168;28;20084;-58
2022/05/15 02:40:07;;;;;;;7.70;2.00;;;21.10;57.70;;;;;;5052698;28;20040;-57
2022/05/15 02:42:33;;;;;;;5.53;1.75;;;21.00;57.70;;;;;;5053406;28;20443;-57
2022/05/15 02:44:58;;;;;;;6.25;1.85;;;21.10;57.70;;;;;;5051431;28;20088;-57
2022/05/15 02:47:24;;;;;;;6.30;2.33;;;21.10;57.70;;;;;;5052436;28;20066;-57
2022/05/15 02:52:33;;;;;;;6.70;2.15;;;21.10;57.70;;;;;;5052959;28;20048;-57
2022/05/15 02:54:59;;;;;;;7.32;2.00;;;21.00;57.60;;;;;;5051795;28;20049;-57
2022/05/15 02:57:24;;;;;;;6.18;1.90;;;21.00;57.60;;;;;;5053403;28;20045;-57
2022/05/15 02:59:50;;;;;;;5.82;2.10;;;21.00;57.60;;;;;;5051839;28;20114;-58
2022/05/15 03:02:15;;;;;;;5.28;2.05;;;21.00;57.60;;;;;;5052242;28;20515;-57
2022/05/15 03:04:41;;;;;;;6.30;2.08;;;21.00;57.60;;;;;;5052424;28;20049;-57
2022/05/15 03:07:07;;;;;;;6.13;1.90;;;21.00;57.60;;;;;;5053110;28;20480;-58
2022/05/15 03:09:32;;;;;;;5.75;2.03;;;21.00;58.30;;;;;;5050825;28;20041;-57
2022/05/15 03:11:58;;;;;;;5.63;1.60;;;21.00;57.60;;;;;;5052726;28;20572;-57
2022/05/15 03:14:24;;;;;;;5.57;1.80;;;21.00;57.60;;;;;;5051928;28;20057;-57
2022/05/15 03:16:49;;;;;;;5.35;1.80;;;21.00;57.60;;;;;;5052328;28;20049;-57
2022/05/15 03:19:15;;;;;;;4.57;1.70;;;21.00;57.50;;;;;;5052696;28;20059;-57
2022/05/15 03:21:40;;;;;;;5.97;2.10;;;21.00;57.50;;;;;;5051495;28;20844;-57
2022/05/15 03:24:10;;;;;;;6.25;2.05;;;21.00;57.50;;;;;;5052833;28;20126;-57
2022/05/15 03:26:41;;;;;;;6.03;1.88;;;21.00;57.50;;;;;;5052566;28;20413;-57
2022/05/15 03:29:07;;;;;;;5.53;1.77;;;20.90;57.40;;;;;;5051953;28;20075;-57
2022/05/15 03:31:35;;;;;;;6.57;1.95;;;21.00;57.50;;;;;;5052674;28;20045;-57
2022/05/15 03:34:02;;;;;;;3.90;1.65;;;20.90;58.10;;;;;;5052190;28;20044;-57
2022/05/15 03:36:28;;;;;;;5.43;1.63;;;20.90;57.40;;;;;;5051661;28;20048;-57
2022/05/15 03:38:53;;;;;;;5.75;1.80;;;20.90;57.40;;;;;;5052470;28;20037;-57
2022/05/15 03:41:19;;;;;;;5.82;1.85;;;20.90;57.40;;;;;;5052360;28;20052;-57
2022/05/15 03:43:44;;;;;;;5.07;1.50;;;20.90;57.40;;;;;;5051460;28;20045;-57
2022/05/15 03:46:10;;;;;;;5.15;1.80;;;20.90;57.40;;;;;;5052426;28;20072;-57
2022/05/15 03:48:35;;;;;;;6.57;2.45;;;20.90;57.30;;;;;;5052195;28;20393;-57
2022/05/15 03:51:01;;;;;;;5.82;1.83;;;20.90;57.40;;;;;;5051278;28;20041;-57
2022/05/15 03:53:27;;;;;;;6.55;1.75;;;20.90;57.30;;;;;;5052402;28;20120;-57
2022/05/15 03:55:55;;;;;;;5.90;1.77;;;20.90;57.40;;;;;;5052201;28;20060;-57
2022/05/15 03:58:22;;;;;;;7.70;1.60;;;20.90;57.40;;;;;;5051436;28;20037;-57
2022/05/15 04:00:48;;;;;;;6.07;1.70;;;20.80;57.30;;;;;;5046405;28;20049;-57
2022/05/15 04:03:13;;;;;;;5.60;2.17;;;20.90;57.30;;;;;;5032228;28;20056;-58
2022/05/15 04:05:39;;;;;;;4.47;1.90;;;20.90;57.30;;;;;;5030861;28;20500;-57
2022/05/15 04:08:04;;;;;;;5.82;1.77;;;20.90;57.30;;;;;;5032207;28;20128;-58
2022/05/15 04:10:30;;;;;;;4.65;1.75;;;20.80;57.20;;;;;;5032273;28;20052;-57
2022/05/15 04:12:55;;;;;;;7.70;2.00;;;20.80;57.20;;;;;;5031444;28;20107;-57
2022/05/15 04:15:21;;;;;;;4.65;1.70;;;20.80;57.20;;;;;;5032080;28;20054;-57
2022/05/15 04:17:49;;;;;;;6.63;1.95;;;20.80;57.20;;;;;;5031331;28;20037;-57
2022/05/15 04:20:16;;;;;;;6.00;2.05;;;20.80;57.20;;;;;;5033188;28;20095;-57
2022/05/15 04:22:41;;;;;;;6.45;2.25;;;20.80;57.20;;;;;;5036030;28;20041;-57
2022/05/15 04:25:07;;;;;;;5.72;1.88;;;20.80;57.20;;;;;;5035541;28;20064;-57
2022/05/15 04:27:33;;;;;;;3.45;1.70;;;20.80;57.20;;;;;;5036201;28;20037;-57
2022/05/15 04:29:58;;;;;;;4.63;1.50;;;20.80;57.20;;;;;;5035640;28;20056;-57
2022/05/15 04:32:24;;;;;;;4.88;1.88;;;20.80;57.20;;;;;;5035096;28;20045;-57
2022/05/15 04:34:49;;;;;;;5.45;2.03;;;20.80;57.20;;;;;;5035691;28;20132;-57
2022/05/15 04:37:15;;;;;;;6.03;1.83;;;20.80;57.10;;;;;;5035984;28;20080;-58
2022/05/15 04:39:41;;;;;;;6.63;2.08;;;20.80;57.00;;;;;;5034719;28;20120;-57
2022/05/15 04:42:07;;;;;;;6.57;2.00;;;20.80;57.00;;;;;;5035920;28;20120;-57
2022/05/15 04:44:33;;;;;;;5.63;1.75;;;20.90;57.00;;;;;;5035696;28;20422;-58
2022/05/15 04:46:58;;;;;;;5.38;1.90;;;20.80;56.90;;;;;;5034575;28;20140;-57
2022/05/15 04:49:24;;;;;;;5.43;1.70;;;20.80;56.80;;;;;;5035385;28;20116;-57
2022/05/15 04:51:49;;;;;;;4.72;1.65;;;20.90;56.90;;;;;;5035461;28;20088;-58
2022/05/15 04:54:15;;;;;;;5.55;1.63;;;20.90;56.80;;;;;;5035056;28;20052;-58
2022/05/15 04:56:40;;;;;;;8.05;2.03;;;20.90;56.80;;;;;;5035276;28;20436;-57
2022/05/15 04:59:06;;;;;;;6.20;2.05;;;20.90;56.70;;;;;;5035671;28;20052;-57
2022/05/15 05:01:31;;;;;;;5.97;1.63;;;20.90;56.70;;;;;;5034515;28;20045;-57
2022/05/15 05:03:57;;;;;;;6.20;1.88;;;20.90;56.70;;;;;;5035005;28;20065;-58
2022/05/15 05:06:23;;;;;;;6.47;1.95;;;20.90;56.70;;;;;;5035542;28;20432;-57
2022/05/15 05:08:49;;;;;;;5.47;2.17;;;20.90;56.60;;;;;;5034500;28;20433;-58
2022/05/15 05:11:15;;;;;;;4.28;2.05;;;20.90;56.70;;;;;;5035382;28;20091;-57
2022/05/15 05:13:40;;;;;;;5.18;1.83;;;21.00;56.70;;;;;;5034852;28;20046;-58
2022/05/15 05:16:06;;;;;;;4.97;1.85;;;20.90;56.60;;;;;;5034162;28;20053;-57
2022/05/15 05:18:31;;;;;;;4.80;1.92;;;20.90;56.60;;;;;;5035132;28;20469;-58
2022/05/15 05:20:57;;;;;;;4.78;1.98;;;21.00;56.70;;;;;;5034552;28;20049;-58
2022/05/15 05:23:22;;;;;;;5.32;1.88;;;21.00;56.70;;;;;;5034859;28;20057;-57
2022/05/15 05:25:48;;;;;;;5.13;1.90;;;21.00;56.70;;;;;;5034671;28;20048;-57
2022/05/15 05:28:14;;;;;;;5.90;1.80;;;21.00;56.70;;;;;;5034240;28;20037;-58
2022/05/15 05:30:40;;;;;;;3.92;1.77;;;21.00;56.70;;;;;;5034399;28;20049;-58
2022/05/15 05:33:06;;;;;;;5.60;1.90;;;21.00;56.70;;;;;;5033609;28;20042;-58
2022/05/15 05:35:32;;;;;;;5.25;1.50;;;21.00;56.70;;;;;;5034035;28;20501;-58
2022/05/15 05:37:57;;;;;;;4.20;1.60;;;21.00;56.70;;;;;;5034589;28;20049;-58
2022/05/15 05:40:23;;;;;;;6.18;2.25;;;21.00;56.80;;;;;;5034539;28;20400;-57
2022/05/15 05:42:48;;;;;;;4.68;1.70;;;21.00;56.80;;;;;;5033626;28;20048;-57
2022/05/15 05:45:14;;;;;;;5.72;2.00;;;21.00;56.80;;;;;;5034466;28;20041;-57
2022/05/15 05:47:39;;;;;;;7.13;1.95;;;21.00;56.80;;;;;;5034312;28;20033;-58
2022/05/15 05:50:08;;;;;;;7.13;2.33;;;21.00;56.90;;;;;;5033865;28;20123;-57
2022/05/15 05:52:35;;;;;;;6.88;2.10;;;21.00;56.80;;;;;;5034544;28;20045;-58
2022/05/15 05:55:01;;;;;;;4.03;1.60;;;21.10;57.00;;;;;;5033931;28;20050;-58
2022/05/15 05:57:26;;;;;;;3.65;1.65;;;21.00;56.90;;;;;;5033486;28;20049;-58
2022/05/15 05:59:52;;;;;;;4.57;1.65;;;21.00;56.90;;;;;;5033971;28;20045;-58
2022/05/15 06:02:17;;;;;;;5.65;1.77;;;21.00;56.90;;;;;;5034218;28;20515;-58
2022/05/15 06:04:44;;;;;;;6.15;1.77;;;21.10;57.00;;;;;;5033218;28;20052;-58
2022/05/15 06:07:12;;;;;;;6.30;1.98;;;21.10;57.00;;;;;;5034392;28;20541;-58
2022/05/15 06:09:43;;;;;;;6.50;1.92;;;21.10;57.00;;;;;;5034170;28;20073;-58
2022/05/15 06:12:09;;;;;;;4.47;1.80;;;21.10;57.10;;;;;;5032168;28;20122;-58
2022/05/15 06:14:35;;;;;;;5.68;1.98;;;21.10;57.10;;;;;;5033674;28;20088;-58
2022/05/15 06:17:00;;;;;;;6.18;2.03;;;21.00;57.00;;;;;;5033376;28;20141;-58
2022/05/15 06:19:26;;;;;;;4.25;1.85;;;21.10;57.00;;;;;;5033312;28;20045;-57
2022/05/15 06:21:51;;;;;;;4.30;1.67;;;21.10;57.10;;;;;;5033504;28;20489;-59
2022/05/15 06:24:17;;;;;;;5.57;1.95;;;21.10;57.00;;;;;;5038932;28;20072;-58
2022/05/15 06:26:42;;;;;;;8.35;2.20;;;21.10;57.00;;;;;;5053186;28;20041;-58
2022/05/15 06:29:08;;;;;;;4.43;1.98;;;21.10;57.10;;;;;;5053384;28;20063;-58
2022/05/15 06:31:33;;;;;;;5.10;2.13;;;21.10;57.10;;;;;;5052553;28;20481;-58
2022/05/15 06:33:59;;;;;;;4.72;1.92;;;21.10;57.10;;;;;;5053343;28;20068;-58
2022/05/15 06:36:24;;;;;;;5.32;1.70;;;21.10;57.20;;;;;;5053497;28;20128;-57
2022/05/15 06:38:50;;;;;;;6.82;2.35;;;21.20;57.20;;;;;;5052458;28;20045;-58
2022/05/15 06:41:15;;;;;;;5.53;2.15;;;21.20;57.30;;;;;;5053188;28;20500;-58
2022/05/15 06:43:41;;;;;;;5.28;1.98;;;21.20;57.40;;;;;;5052690;28;20083;-58
2022/05/15 06:46:07;;;;;;;6.75;1.65;;;21.20;57.40;;;;;;5052429;28;20041;-58
2022/05/15 06:48:38;;;;;;;8.65;1.95;;;21.20;57.40;;;;;;5053163;28;20083;-57
2022/05/15 06:51:04;;;;;;;5.97;1.60;;;21.20;57.40;;;;;;5053303;28;20041;-58
2022/05/15 06:53:29;;;;;;;4.70;1.85;;;21.20;57.50;;;;;;5052576;28;20439;-58
2022/05/15 06:58:39;;;;;;;10.02;1.98;;;21.30;57.50;;;;;;5035329;28;20124;-57
2022/05/15 07:01:05;;;;;;;6.07;1.70;;;21.20;57.70;;;;;;5039843;28;20136;-58
2022/05/15 07:03:30;;;;;;;4.55;1.65;;;21.30;57.80;;;;;;5062940;28;20395;-58
2022/05/15 07:05:56;;;;;;;6.88;1.88;;;21.30;57.90;;;;;;5071804;28;20456;-57
2022/05/15 07:08:22;;;;;;;6.32;2.00;;;21.30;57.90;;;;;;5069951;28;20035;-57
2022/05/15 07:10:47;;;;;;;7.82;2.10;;;21.30;57.90;;;;;;5069994;28;20037;-58
2022/05/15 07:13:13;;;;;;;10.60;1.83;;;21.30;58.10;;;;;;5068500;28;20084;-57
2022/05/15 07:15:39;;;;;;;6.40;1.80;;;21.30;58.20;;;;;;5070376;28;20486;-57
2022/05/15 07:18:07;;;;;;;7.57;1.92;;;21.30;58.40;;;;;;5072162;28;20480;-58
2022/05/15 07:20:33;;;;;;;5.82;1.60;;;21.30;58.50;;;;;;5071838;28;20040;-58
2022/05/15 07:22:59;;;;;;;6.63;1.60;;;21.30;58.50;;;;;;5068461;28;20098;-57
2022/05/15 07:25:24;;;;;;;8.50;2.10;;;21.30;58.60;;;;;;5071311;28;20055;-58
2022/05/15 07:27:50;;;;;;;6.70;1.77;;;21.40;58.70;;;;;;5071497;28;20044;-58
2022/05/15 07:30:16;;;;;;;5.97;1.70;;;21.40;58.80;;;;;;5072577;28;20047;-58
2022/05/15 07:32:41;;;;;;;5.50;1.75;;;21.40;58.80;;;;;;5071595;28;20048;-58
2022/05/15 07:35:07;;;;;;;5.50;1.80;;;21.40;58.80;;;;;;5071193;28;20054;-58
2022/05/15 07:37:32;;;;;;;8.02;2.10;;;21.50;58.90;;;;;;5072294;28;20479;-58
2022/05/15 07:39:58;;;;;;;5.75;2.20;;;21.50;59.00;;;;;;5043892;28;20045;-58
2022/05/15 07:42:24;;;;;;;7.28;1.83;;;21.40;59.00;;;;;;5040251;28;20493;-59
2022/05/15 07:44:50;;;;;;;6.07;1.65;;;21.50;59.10;;;;;;5046326;28;20053;-59
2022/05/15 07:47:16;;;;;;;5.55;1.67;;;21.50;59.00;;;;;;5052073;28;20049;-58
2022/05/15 07:49:42;;;;;;;11.07;2.50;;;21.50;59.00;;;;;;5051312;28;20048;-59
2022/05/15 07:52:08;;;;;;;7.30;1.73;;;21.50;59.10;;;;;;5052330;28;20131;-58
2022/05/15 07:54:34;;;;;;;6.35;1.70;;;21.60;59.00;;;;;;5052381;28;20175;-58
2022/05/15 07:57:03;;;;;;;4.68;1.70;;;21.60;58.80;;;;;;5055196;28;20080;-58
2022/05/15 07:59:29;;;;;;;7.07;1.75;;;21.60;58.80;;;;;;5056475;28;20045;-58
2022/05/15 08:01:55;;;;;;;9.20;2.10;;;21.60;58.60;;;;;;5056026;28;20037;-58
2022/05/15 08:04:21;;;;;;;6.28;1.58;;;21.60;58.60;;;;;;5055737;28;20090;-58
2022/05/15 08:09:31;;;;;;;4.28;1.63;;;21.60;58.40;;;;;;5056371;28;20052;-58
2022/05/15 08:11:56;;;;;;;5.00;1.40;;;21.60;58.40;;;;;;5054880;28;20045;-58
2022/05/15 08:14:22;;;;;;;4.68;1.58;;;21.60;58.30;;;;;;5056054;28;20138;-59
2022/05/15 08:16:48;;;;;;;5.25;1.73;;;21.60;58.30;;;;;;5054902;28;20385;-58
2022/05/15 08:24:42;;;;;;;5.43;1.90;;;21.70;58.30;;;;;;5055130;28;20160;-59
2022/05/15 08:27:09;;;;;;;6.82;2.55;;;21.60;58.20;;;;;;5055921;28;20068;-59
2022/05/15 08:29:35;;;;;;;8.53;2.43;;;21.70;58.20;;;;;;5056029;28;20041;-59
2022/05/15 08:32:02;;;;;;;6.13;2.50;;;21.70;58.20;;;;;;5054553;28;20051;-59
2022/05/15 08:34:27;;;;;;;12.15;3.15;;;21.70;58.20;;;;;;5055960;28;20088;-59
2022/05/15 08:36:54;;;;;;;7.07;2.92;;;21.70;58.20;;;;;;5054447;28;20489;-58
2022/05/15 08:39:19;;;;;;;10.70;3.33;;;21.70;58.10;;;;;;5055107;28;20699;-59
2022/05/15 08:41:51;;;;;;;9.88;3.50;;;21.70;58.30;;;;;;5074963;28;20036;-59
2022/05/15 08:44:23;;;;;;;11.85;3.20;;;21.70;58.40;;;;;;5075270;28;20037;-59
2022/05/15 08:46:48;;;;;;;12.77;3.53;;;21.70;58.30;;;;;;5074060;28;20401;-57
2022/05/15 08:49:38;;;;;;;13.25;3.95;;;21.70;58.50;;;;;;5074777;28;20037;-57
2022/05/15 08:52:23;;;;;;;14.35;4.20;;;21.70;58.80;;;;;;5074314;28;20083;-58
2022/05/15 08:54:57;;;;;;;17.17;3.70;;;21.80;59.00;;;;;;5073876;28;20048;-58
2022/05/15 08:57:38;;;;;;;12.48;4.28;;;21.80;59.30;;;;;;5057560;28;20073;-57
2022/05/15 09:00:05;;;;;;;10.90;3.35;;;21.80;59.40;;;;;;5074700;28;20044;-57
2022/05/15 09:02:31;;;;;;;10.73;3.58;;;21.80;59.30;;;;;;5073751;28;20040;-57
2022/05/15 09:04:56;;;;;;;9.13;3.50;;;21.80;59.40;;;;;;5074958;28;20059;-58
2022/05/15 09:07:41;;;;;;;9.85;3.47;;;21.80;59.30;;;;;;5056338;28;20051;-58
2022/05/15 09:10:15;;;;;;;10.00;3.40;;;21.80;59.50;;;;;;5075032;28;20044;-57
2022/05/15 09:12:42;;;;;;;9.60;3.20;;;21.80;59.50;;;;;;5074670;28;20044;-58
2022/05/15 09:15:18;;;;;;;12.48;3.70;;;21.90;59.50;;;;;;5046178;28;20049;-58
2022/05/15 09:17:58;;;;;;;13.02;3.65;;;21.90;59.50;;;;;;5045052;28;20515;-58
2022/05/15 09:20:24;;;;;;;11.15;3.80;;;21.90;59.40;;;;;;5053425;28;20037;-58
2022/05/15 09:23:01;;;;;;;11.80;3.97;;;21.90;59.40;;;;;;5054458;28;20053;-58
2022/05/15 09:25:35;;;;;;;9.90;3.40;;;22.00;59.50;;;;;;5054798;28;20492;-58
2022/05/15 09:28:03;;;;;;;10.13;3.45;;;21.90;59.40;;;;;;5053863;28;20045;-58
2022/05/15 09:30:48;;;;;;;10.52;3.38;;;21.90;59.40;;;;;;5054610;28;20041;-58
2022/05/15 09:33:44;;;;;;;10.80;3.10;;;22.00;59.50;;;;;;5054351;28;20469;-58
2022/05/15 09:36:29;;;;;;;10.40;3.28;;;22.00;59.50;;;;;;5052589;28;20048;-58
2022/05/15 09:39:20;;;;;;;10.00;3.42;;;21.90;59.30;;;;;;5053878;28;20056;-58
2022/05/15 09:44:46;;;;;;;9.48;3.15;;;22.00;59.00;;;;;;5054024;28;20076;-59
2022/05/15 09:47:31;;;;;;;11.50;3.38;;;21.90;58.90;;;;;;5053990;28;20077;-59
2022/05/15 09:49:56;;;;;;;19.20;3.85;;;22.00;58.60;;;;;;5053467;28;20045;-59
2022/05/15 09:52:35;;;;;;;15.70;3.72;;;21.90;58.20;;;;;;5054376;28;20051;-59
2022/05/15 09:55:20;;;;;;;15.57;3.42;;;21.90;57.60;;;;;;5048992;28;20068;-59
2022/05/15 09:58:05;;;;;;;16.95;3.40;;;21.90;56.90;;;;;;5044232;28;20055;-59
2022/05/15 10:00:35;;;;;;;13.48;3.00;;;21.90;56.60;;;;;;5034248;28;20037;-59
2022/05/15 10:03:21;;;;;;;15.68;3.50;;;21.80;56.30;;;;;;5032914;28;20037;-59
2022/05/15 10:06:01;;;;;;;13.00;3.40;;;21.80;55.90;;;;;;5032703;28;20045;-59
2022/05/15 10:08:27;;;;;;;14.00;2.90;;;21.80;55.40;;;;;;5034292;28;20038;-59
2022/05/15 10:11:01;;;;;;;19.33;3.80;;;21.80;55.20;;;;;;5031928;28;20046;-59
2022/05/15 10:13:35;;;;;;;12.82;2.75;;;21.80;54.80;;;;;;5033802;28;20052;-59
2022/05/15 10:16:24;;;;;;;15.20;3.28;;;21.80;54.50;;;;;;5032453;28;20136;-59
2022/05/15 10:18:58;;;;;;;12.13;3.55;;;21.80;54.20;;;;;;5032000;28;20072;-59
2022/05/15 10:21:25;;;;;;;13.60;3.33;;;21.70;54.10;;;;;;5016953;28;20038;-59
2022/05/15 10:23:55;;;;;;;15.65;3.30;;;21.70;53.90;;;;;;5031674;28;20037;-59
2022/05/15 10:26:27;;;;;;;13.52;3.13;;;21.70;53.60;;;;;;5032556;28;20053;-59
2022/05/15 10:29:21;;;;;;;9.70;2.95;;;21.70;53.30;;;;;;5033240;28;20048;-59
2022/05/15 10:31:49;;;;;;;10.57;2.80;;;21.70;52.90;;;;;;5017841;28;20048;-59
2022/05/15 10:34:18;;;;;;;;;;;21.70;53.00;;;;;;5032828;28;20046;-59
2022/05/15 10:36:52;;;;;;;12.25;3.13;;;21.70;52.80;;;;;;5032010;28;19975;-59
2022/05/15 10:39:24;;;;;;;9.90;2.70;;;21.70;53.00;;;;;;5031507;28;20053;-59
2022/05/15 10:42:25;;;;;;;10.02;2.75;;;21.70;53.00;;;;;;5031827;28;20096;-60
2022/05/15 10:45:08;;;;;;;10.70;3.25;;;21.70;52.60;;;;;;5032234;28;20087;-59
2022/05/15 10:47:53;;;;;;;11.77;2.88;;;21.70;52.60;;;;;;5031504;28;20120;-59
2022/05/15 10:50:31;;;;;;;14.43;3.08;;;21.70;52.10;;;;;;5032029;28;20033;-59
2022/05/15 10:59:50;;;;;;;12.30;2.78;;;21.70;51.90;;;;;;5030713;28;20504;-59
2022/05/15 11:02:37;;;;;;;16.63;3.40;;;21.70;52.20;;;;;;5031835;28;20042;-59
2022/05/15 11:05:13;;;;;;;7.30;2.37;;;21.70;52.00;;;;;;5032984;28;20049;-59
2022/05/15 11:07:53;;;;;;;11.45;3.22;;;21.70;51.40;;;;;;5030766;28;20128;-59
2022/05/15 11:11:05;;;;;;;10.52;2.80;;;21.70;51.30;;;;;;5045044;28;20037;-59
2022/05/15 11:13:48;;;;;;;9.02;2.85;;;21.70;51.00;;;;;;5037233;28;20053;-60
2022/05/15 11:16:25;;;;;;;11.25;3.40;;;21.70;51.20;;;;;;5052710;28;20041;-59
2022/05/15 11:19:11;;;;;;;12.43;2.90;;;21.70;51.30;;;;;;5067933;28;20048;-59
2022/05/15 11:22:05;;;;;;;11.25;3.50;;;21.70;51.20;;;;;;5066242;28;20045;-58
2022/05/15 11:24:48;;;;;;;12.70;2.95;;;21.80;51.20;;;;;;5052383;28;20396;-59
2022/05/15 11:27:38;;;;;;;12.65;2.88;;;21.70;50.90;;;;;;5067438;28;20037;-59
2022/05/15 11:30:16;;;;;;;12.52;2.83;;;21.70;50.90;;;;;;5065005;28;20503;-60
2022/05/15 11:32:45;;;;;;;16.25;3.30;;;21.70;50.90;;;;;;5066618;28;20041;-59
2022/05/15 11:35:24;;;;;;;14.25;2.83;;;21.70;50.70;;;;;;5051614;28;20553;-57
2022/05/15 11:38:04;;;;;;;12.68;2.78;;;21.80;50.70;;;;;;5032279;28;20183;-59
2022/05/15 11:40:48;;;;;;;12.70;3.03;;;21.80;50.80;;;;;;5032303;28;20451;-58
2022/05/15 11:43:29;;;;;;;15.52;2.55;;;21.80;50.80;;;;;;5031566;28;20116;-57
2022/05/15 11:46:08;;;;;;;12.57;2.83;;;21.80;50.80;;;;;;5037129;28;20052;-58
2022/05/15 11:48:50;;;;;;;10.68;2.88;;;21.80;50.90;;;;;;5057112;28;20048;-57
2022/05/15 11:51:16;;;;;;;10.77;3.00;;;21.80;51.20;;;;;;5043026;28;20047;-58
2022/05/15 11:54:02;;;;;;;13.48;2.97;;;21.80;51.00;;;;;;5042096;28;20038;-57
2022/05/15 11:56:40;;;;;;;13.88;3.03;;;21.80;50.60;;;;;;5041140;28;20033;-57
2022/05/15 11:59:21;;;;;;;13.88;2.88;;;21.80;50.60;;;;;;5038469;28;20128;-58
2022/05/15 12:01:49;;;;;;;11.30;2.83;;;21.80;50.50;;;;;;5031784;28;20092;-58
2022/05/15 12:04:18;;;;;;;;;;;21.80;50.30;;;;;;5030942;28;20049;-58
2022/05/15 12:06:55;;;;;;;14.07;2.30;;;21.80;49.90;;;;;;5031960;28;19921;-57
2022/05/15 12:09:29;;;;;;;12.10;2.53;;;21.80;49.80;;;;;;5031634;28;20056;-57
2022/05/15 12:11:58;;;;;;;12.05;3.33;;;21.80;49.70;;;;;;5031966;28;20084;-57
2022/05/15 12:14:29;;;;;;;8.15;2.50;;;21.80;49.10;;;;;;5046844;28;20493;-58
2022/05/15 12:17:17;;;;;;;13.88;2.70;;;21.90;48.70;;;;;;5031116;28;20076;-57
2022/05/15 12:19:43;;;;;;;12.55;2.90;;;21.90;48.50;;;;;;5031898;28;20053;-58
2022/05/15 12:22:10;;;;;;;10.10;2.40;;;21.90;48.30;;;;;;5047448;28;20041;-57
2022/05/15 12:24:37;;;;;;;10.07;2.60;;;21.90;47.70;;;;;;5031563;28;20042;-58
2022/05/15 12:27:20;;;;;;;11.68;2.67;;;21.90;47.50;;;;;;5031580;28;20413;-57
2022/05/15 12:30:15;;;;;;;10.57;2.45;;;21.90;47.50;;;;;;5046530;28;20056;-58
2022/05/15 12:32:52;;;;;;;12.10;2.30;;;21.90;47.30;;;;;;5031842;28;20491;-58
2022/05/15 12:35:30;;;;;;;10.40;2.75;;;21.90;47.40;;;;;;5046879;28;20048;-58
2022/05/15 12:37:57;;;;;;;14.18;2.60;;;22.00;47.00;;;;;;5030884;28;20049;-58
2022/05/15 12:40:28;;;;;;;8.82;2.88;;;22.00;47.40;;;;;;5047335;28;20107;-58
2022/05/15 12:42:53;;;;;;;11.93;2.42;;;21.90;47.00;;;;;;5050568;28;20042;-58
2022/05/15 12:45:21;;;;;;;14.68;2.78;;;22.00;46.60;;;;;;5035014;28;20547;-57
2022/05/15 12:48:05;;;;;;;12.77;3.00;;;22.00;46.50;;;;;;5034890;28;20045;-58
2022/05/15 12:50:30;;;;;;;9.98;2.55;;;22.00;46.30;;;;;;5035680;28;20103;-58
2022/05/15 12:52:58;;;;;;;9.50;2.33;;;22.00;45.70;;;;;;5034690;28;20053;-58
2022/05/15 12:55:34;;;;;;;11.63;2.22;;;22.00;45.40;;;;;;5035471;28;20052;-58
2022/05/15 12:58:07;;;;;;;13.50;3.22;;;22.10;45.20;;;;;;5035364;28;20045;-57
2022/05/15 13:00:42;;;;;;;13.35;2.58;;;22.10;45.20;;;;;;5035245;28;20044;-58
2022/05/15 13:03:10;;;;;;;11.82;2.67;;;22.10;45.50;;;;;;5035230;28;20477;-57
2022/05/15 13:05:55;;;;;;;11.05;1.98;;;22.10;45.90;;;;;;5034753;28;20064;-57
2022/05/15 13:08:21;;;;;;;9.88;2.70;;;22.10;46.30;;;;;;5035605;28;20049;-58
2022/05/15 13:10:57;;;;;;;10.63;2.40;;;22.10;46.50;;;;;;5037126;28;20091;-57
2022/05/15 13:13:25;;;;;;;10.07;2.17;;;22.10;45.50;;;;;;5045033;28;20037;-58
2022/05/15 13:15:52;;;;;;;9.13;2.42;;;22.20;46.10;;;;;;5050204;28;20068;-58
2022/05/15 13:18:17;;;;;;;12.05;2.55;;;22.20;45.80;;;;;;5035005;28;20045;-57
2022/05/15 13:20:49;;;;;;;10.07;2.60;;;22.20;45.90;;;;;;5049480;28;20049;-58